sensor_id;sensor_type;location;lat;lon;timestamp;P1;durP1;ratioP1;P2;durP2;ratioP2
33714;SDS011;20043;50.998;4.754;2023-08-01T00:01:12;4.15;;;1.80;;
33714;SDS011;20043;50.998;4.754;2023-08-01T00:03:38;5.60;;;2.13;;
33714;SDS011;20043;50.998;4.754;2023-08-01T00:06:03;7.25;;;2.13;;
33714;SDS011;20043;50.998;4.754;2023-08-01T00:08:29;7.00;;;2.03;;
33714;SDS011;20043;50.998;4.754;2023-08-01T00:10:55;5.43;;;1.90;;
33714;SDS011;20043;50.998;4.754;2023-08-01T00:13:20;5.13;;;1.92;;
33714;SDS011;20043;50.998;4.754;2023-08-01T00:15:46;5.10;;;2.20;;
33714;SDS011;20043;50.998;4.754;2023-08-01T00:18:12;8.95;;;2.17;;
33714;SDS011;20043;50.998;4.754;2023-08-01T00:20:37;11.30;;;2.30;;
33714;SDS011;20043;50.998;4.754;2023-08-01T00:23:04;6.10;;;2.30;;
33714;SDS011;20043;50.998;4.754;2023-08-01T00:25:30;5.97;;;2.13;;
33714;SDS011;20043;50.998;4.754;2023-08-01T00:27:56;8.25;;;2.97;;
33714;SDS011;20043;50.998;4.754;2023-08-01T00:30:21;8.18;;;1.90;;
33714;SDS011;20043;50.998;4.754;2023-08-01T00:32:47;6.63;;;2.45;;
33714;SDS011;20043;50.998;4.754;2023-08-01T00:35:12;5.65;;;2.33;;
33714;SDS011;20043;50.998;4.754;2023-08-01T00:37:38;7.28;;;2.30;;
33714;SDS011;20043;50.998;4.754;2023-08-01T00:40:04;6.80;;;2.40;;
33714;SDS011;20043;50.998;4.754;2023-08-01T00:42:30;4.95;;;2.60;;
33714;SDS011;20043;50.998;4.754;2023-08-01T00:44:56;10.75;;;2.70;;
33714;SDS011;20043;50.998;4.754;2023-08-01T00:47:21;8.90;;;2.95;;
33714;SDS011;20043;50.998;4.754;2023-08-01T00:49:47;6.90;;;3.00;;
33714;SDS011;20043;50.998;4.754;2023-08-01T00:52:14;9.15;;;2.90;;
33714;SDS011;20043;50.998;4.754;2023-08-01T00:54:39;9.82;;;3.70;;
33714;SDS011;20043;50.998;4.754;2023-08-01T00:57:05;11.70;;;3.78;;
33714;SDS011;20043;50.998;4.754;2023-08-01T00:59:31;15.10;;;4.22;;
33714;SDS011;20043;50.998;4.754;2023-08-01T01:01:58;13.85;;;4.38;;
33714;SDS011;20043;50.998;4.754;2023-08-01T01:04:25;11.55;;;3.83;;
33714;SDS011;20043;50.998;4.754;2023-08-01T01:06:53;12.32;;;4.28;;
33714;SDS011;20043;50.998;4.754;2023-08-01T01:09:31;13.23;;;4.25;;
33714;SDS011;20043;50.998;4.754;2023-08-01T01:11:57;12.15;;;4.28;;
33714;SDS011;20043;50.998;4.754;2023-08-01T01:14:25;10.73;;;4.43;;
33714;SDS011;20043;50.998;4.754;2023-08-01T01:16:51;11.57;;;4.85;;
33714;SDS011;20043;50.998;4.754;2023-08-01T01:19:17;10.93;;;4.57;;
33714;SDS011;20043;50.998;4.754;2023-08-01T01:21:43;13.77;;;4.60;;
33714;SDS011;20043;50.998;4.754;2023-08-01T01:24:10;11.60;;;4.53;;
33714;SDS011;20043;50.998;4.754;2023-08-01T01:26:38;12.50;;;4.60;;
33714;SDS011;20043;50.998;4.754;2023-08-01T01:29:06;19.58;;;5.07;;
33714;SDS011;20043;50.998;4.754;2023-08-01T01:31:33;10.75;;;4.00;;
33714;SDS011;20043;50.998;4.754;2023-08-01T01:34:00;13.40;;;4.43;;
33714;SDS011;20043;50.998;4.754;2023-08-01T01:36:26;12.73;;;4.65;;
33714;SDS011;20043;50.998;4.754;2023-08-01T01:38:52;9.32;;;4.75;;
33714;SDS011;20043;50.998;4.754;2023-08-01T01:41:18;15.77;;;5.40;;
33714;SDS011;20043;50.998;4.754;2023-08-01T01:43:43;9.70;;;4.85;;
33714;SDS011;20043;50.998;4.754;2023-08-01T01:46:09;13.50;;;5.03;;
33714;SDS011;20043;50.998;4.754;2023-08-01T01:48:35;10.25;;;5.00;;
33714;SDS011;20043;50.998;4.754;2023-08-01T01:51:00;12.55;;;5.40;;
33714;SDS011;20043;50.998;4.754;2023-08-01T01:53:26;14.10;;;5.82;;
33714;SDS011;20043;50.998;4.754;2023-08-01T01:55:52;12.15;;;6.00;;
33714;SDS011;20043;50.998;4.754;2023-08-01T01:58:18;14.65;;;5.78;;
33714;SDS011;20043;50.998;4.754;2023-08-01T02:00:43;11.10;;;5.82;;
33714;SDS011;20043;50.998;4.754;2023-08-01T02:03:09;11.23;;;5.70;;
33714;SDS011;20043;50.998;4.754;2023-08-01T02:05:35;12.15;;;5.70;;
33714;SDS011;20043;50.998;4.754;2023-08-01T02:08:02;14.13;;;6.32;;
33714;SDS011;20043;50.998;4.754;2023-08-01T02:10:28;13.88;;;5.68;;
33714;SDS011;20043;50.998;4.754;2023-08-01T02:12:53;13.27;;;6.30;;
33714;SDS011;20043;50.998;4.754;2023-08-01T02:15:19;14.32;;;6.47;;
33714;SDS011;20043;50.998;4.754;2023-08-01T02:17:44;16.30;;;6.60;;
33714;SDS011;20043;50.998;4.754;2023-08-01T02:20:10;11.93;;;6.65;;
33714;SDS011;20043;50.998;4.754;2023-08-01T02:22:36;12.75;;;6.30;;
33714;SDS011;20043;50.998;4.754;2023-08-01T02:25:02;13.73;;;6.30;;
33714;SDS011;20043;50.998;4.754;2023-08-01T02:27:27;16.95;;;6.13;;
33714;SDS011;20043;50.998;4.754;2023-08-01T02:29:53;13.38;;;6.35;;
33714;SDS011;20043;50.998;4.754;2023-08-01T02:32:19;15.57;;;6.60;;
33714;SDS011;20043;50.998;4.754;2023-08-01T02:34:44;15.50;;;6.47;;
33714;SDS011;20043;50.998;4.754;2023-08-01T02:37:10;14.57;;;7.00;;
33714;SDS011;20043;50.998;4.754;2023-08-01T02:39:35;15.68;;;6.45;;
33714;SDS011;20043;50.998;4.754;2023-08-01T02:42:01;16.45;;;6.32;;
33714;SDS011;20043;50.998;4.754;2023-08-01T02:44:27;15.10;;;6.68;;
33714;SDS011;20043;50.998;4.754;2023-08-01T02:46:53;16.63;;;7.32;;
33714;SDS011;20043;50.998;4.754;2023-08-01T02:49:19;24.13;;;7.70;;
33714;SDS011;20043;50.998;4.754;2023-08-01T02:51:44;13.95;;;7.70;;
33714;SDS011;20043;50.998;4.754;2023-08-01T02:54:10;19.08;;;8.15;;
33714;SDS011;20043;50.998;4.754;2023-08-01T02:56:36;18.00;;;8.10;;
33714;SDS011;20043;50.998;4.754;2023-08-01T02:59:06;21.08;;;8.95;;
33714;SDS011;20043;50.998;4.754;2023-08-01T03:01:33;14.57;;;9.07;;
33714;SDS011;20043;50.998;4.754;2023-08-01T03:04:00;18.27;;;9.48;;
33714;SDS011;20043;50.998;4.754;2023-08-01T03:06:27;15.93;;;8.50;;
33714;SDS011;20043;50.998;4.754;2023-08-01T03:08:52;21.77;;;10.07;;
33714;SDS011;20043;50.998;4.754;2023-08-01T03:11:18;20.42;;;10.32;;
33714;SDS011;20043;50.998;4.754;2023-08-01T03:13:44;20.55;;;10.15;;
33714;SDS011;20043;50.998;4.754;2023-08-01T03:16:09;23.58;;;10.88;;
33714;SDS011;20043;50.998;4.754;2023-08-01T03:18:35;19.63;;;9.82;;
33714;SDS011;20043;50.998;4.754;2023-08-01T03:21:00;26.67;;;10.40;;
33714;SDS011;20043;50.998;4.754;2023-08-01T03:23:28;21.98;;;10.60;;
33714;SDS011;20043;50.998;4.754;2023-08-01T03:25:54;22.00;;;11.02;;
33714;SDS011;20043;50.998;4.754;2023-08-01T03:28:20;20.67;;;10.70;;
33714;SDS011;20043;50.998;4.754;2023-08-01T03:30:46;16.95;;;10.20;;
33714;SDS011;20043;50.998;4.754;2023-08-01T03:33:14;24.27;;;10.32;;
33714;SDS011;20043;50.998;4.754;2023-08-01T03:35:40;18.80;;;10.15;;
33714;SDS011;20043;50.998;4.754;2023-08-01T03:38:06;17.98;;;10.05;;
33714;SDS011;20043;50.998;4.754;2023-08-01T03:40:32;24.15;;;10.27;;
33714;SDS011;20043;50.998;4.754;2023-08-01T03:42:57;19.60;;;10.30;;
33714;SDS011;20043;50.998;4.754;2023-08-01T03:45:23;22.10;;;10.40;;
33714;SDS011;20043;50.998;4.754;2023-08-01T03:47:49;24.45;;;10.85;;
33714;SDS011;20043;50.998;4.754;2023-08-01T03:50:15;26.10;;;9.90;;
33714;SDS011;20043;50.998;4.754;2023-08-01T03:52:40;24.73;;;10.98;;
33714;SDS011;20043;50.998;4.754;2023-08-01T03:55:06;22.15;;;10.60;;
33714;SDS011;20043;50.998;4.754;2023-08-01T03:57:32;20.88;;;10.63;;
33714;SDS011;20043;50.998;4.754;2023-08-01T03:59:59;21.98;;;10.95;;
33714;SDS011;20043;50.998;4.754;2023-08-01T04:02:25;20.95;;;10.65;;
33714;SDS011;20043;50.998;4.754;2023-08-01T04:04:51;23.00;;;11.70;;
33714;SDS011;20043;50.998;4.754;2023-08-01T04:07:16;23.00;;;11.65;;
33714;SDS011;20043;50.998;4.754;2023-08-01T04:09:43;31.08;;;11.65;;
33714;SDS011;20043;50.998;4.754;2023-08-01T04:12:09;22.90;;;11.13;;
33714;SDS011;20043;50.998;4.754;2023-08-01T04:14:34;20.45;;;11.40;;
33714;SDS011;20043;50.998;4.754;2023-08-01T04:17:07;21.88;;;11.55;;
33714;SDS011;20043;50.998;4.754;2023-08-01T04:19:32;23.10;;;11.82;;
33714;SDS011;20043;50.998;4.754;2023-08-01T04:21:58;24.60;;;11.85;;
33714;SDS011;20043;50.998;4.754;2023-08-01T04:24:23;21.05;;;11.68;;
33714;SDS011;20043;50.998;4.754;2023-08-01T04:26:50;27.77;;;12.25;;
33714;SDS011;20043;50.998;4.754;2023-08-01T04:29:16;29.52;;;12.80;;
33714;SDS011;20043;50.998;4.754;2023-08-01T04:31:42;25.52;;;12.80;;
33714;SDS011;20043;50.998;4.754;2023-08-01T04:34:08;24.10;;;12.15;;
33714;SDS011;20043;50.998;4.754;2023-08-01T04:36:34;22.17;;;12.55;;
33714;SDS011;20043;50.998;4.754;2023-08-01T04:38:59;27.30;;;12.88;;
33714;SDS011;20043;50.998;4.754;2023-08-01T04:41:25;27.10;;;13.30;;
33714;SDS011;20043;50.998;4.754;2023-08-01T04:43:51;29.00;;;12.98;;
33714;SDS011;20043;50.998;4.754;2023-08-01T04:46:17;25.25;;;12.40;;
33714;SDS011;20043;50.998;4.754;2023-08-01T04:48:42;23.98;;;13.15;;
33714;SDS011;20043;50.998;4.754;2023-08-01T04:51:08;23.63;;;12.85;;
33714;SDS011;20043;50.998;4.754;2023-08-01T04:53:34;25.52;;;12.57;;
33714;SDS011;20043;50.998;4.754;2023-08-01T04:55:59;39.40;;;12.95;;
33714;SDS011;20043;50.998;4.754;2023-08-01T04:58:25;23.05;;;12.10;;
33714;SDS011;20043;50.998;4.754;2023-08-01T05:00:50;24.10;;;12.07;;
33714;SDS011;20043;50.998;4.754;2023-08-01T05:03:16;28.60;;;12.18;;
33714;SDS011;20043;50.998;4.754;2023-08-01T05:05:43;27.48;;;11.98;;
33714;SDS011;20043;50.998;4.754;2023-08-01T05:08:08;29.00;;;12.55;;
33714;SDS011;20043;50.998;4.754;2023-08-01T05:10:34;23.30;;;12.07;;
33714;SDS011;20043;50.998;4.754;2023-08-01T05:12:59;24.77;;;11.18;;
33714;SDS011;20043;50.998;4.754;2023-08-01T05:15:25;24.25;;;11.68;;
33714;SDS011;20043;50.998;4.754;2023-08-01T05:17:52;24.17;;;11.50;;
33714;SDS011;20043;50.998;4.754;2023-08-01T05:20:24;23.02;;;10.98;;
33714;SDS011;20043;50.998;4.754;2023-08-01T05:22:55;25.85;;;10.43;;
33714;SDS011;20043;50.998;4.754;2023-08-01T05:25:24;22.48;;;11.50;;
33714;SDS011;20043;50.998;4.754;2023-08-01T05:27:50;27.95;;;11.80;;
33714;SDS011;20043;50.998;4.754;2023-08-01T05:30:15;26.25;;;11.20;;
33714;SDS011;20043;50.998;4.754;2023-08-01T05:32:41;22.42;;;10.73;;
33714;SDS011;20043;50.998;4.754;2023-08-01T05:35:08;25.90;;;10.82;;
33714;SDS011;20043;50.998;4.754;2023-08-01T05:37:34;19.98;;;9.85;;
33714;SDS011;20043;50.998;4.754;2023-08-01T05:40:00;24.33;;;11.00;;
33714;SDS011;20043;50.998;4.754;2023-08-01T05:42:27;25.75;;;10.45;;
33714;SDS011;20043;50.998;4.754;2023-08-01T05:44:53;24.33;;;10.52;;
33714;SDS011;20043;50.998;4.754;2023-08-01T05:47:19;21.13;;;10.10;;
33714;SDS011;20043;50.998;4.754;2023-08-01T05:49:44;22.08;;;9.23;;
33714;SDS011;20043;50.998;4.754;2023-08-01T05:52:10;19.98;;;9.55;;
33714;SDS011;20043;50.998;4.754;2023-08-01T05:54:36;21.77;;;10.00;;
33714;SDS011;20043;50.998;4.754;2023-08-01T05:57:01;16.40;;;9.10;;
33714;SDS011;20043;50.998;4.754;2023-08-01T05:59:27;21.90;;;9.88;;
33714;SDS011;20043;50.998;4.754;2023-08-01T06:01:53;27.17;;;9.98;;
33714;SDS011;20043;50.998;4.754;2023-08-01T06:04:18;32.30;;;10.48;;
33714;SDS011;20043;50.998;4.754;2023-08-01T06:06:44;24.98;;;9.95;;
33714;SDS011;20043;50.998;4.754;2023-08-01T06:09:10;24.27;;;10.23;;
33714;SDS011;20043;50.998;4.754;2023-08-01T06:11:35;24.33;;;9.40;;
33714;SDS011;20043;50.998;4.754;2023-08-01T06:14:01;22.85;;;9.45;;
33714;SDS011;20043;50.998;4.754;2023-08-01T06:16:27;22.42;;;9.60;;
33714;SDS011;20043;50.998;4.754;2023-08-01T06:18:52;25.20;;;9.68;;
33714;SDS011;20043;50.998;4.754;2023-08-01T06:21:18;20.55;;;9.48;;
33714;SDS011;20043;50.998;4.754;2023-08-01T06:23:44;21.58;;;8.95;;
33714;SDS011;20043;50.998;4.754;2023-08-01T06:26:09;25.90;;;8.93;;
33714;SDS011;20043;50.998;4.754;2023-08-01T06:28:35;19.42;;;8.00;;
33714;SDS011;20043;50.998;4.754;2023-08-01T06:31:00;19.00;;;7.82;;
33714;SDS011;20043;50.998;4.754;2023-08-01T06:33:26;21.75;;;8.48;;
33714;SDS011;20043;50.998;4.754;2023-08-01T06:35:52;14.73;;;8.25;;
33714;SDS011;20043;50.998;4.754;2023-08-01T06:38:17;14.73;;;8.77;;
33714;SDS011;20043;50.998;4.754;2023-08-01T06:40:43;26.10;;;9.68;;
33714;SDS011;20043;50.998;4.754;2023-08-01T06:43:09;24.05;;;9.27;;
33714;SDS011;20043;50.998;4.754;2023-08-01T06:45:34;21.83;;;9.07;;
33714;SDS011;20043;50.998;4.754;2023-08-01T06:48:00;25.23;;;9.73;;
33714;SDS011;20043;50.998;4.754;2023-08-01T06:50:25;20.13;;;9.48;;
33714;SDS011;20043;50.998;4.754;2023-08-01T06:52:51;20.55;;;9.50;;
33714;SDS011;20043;50.998;4.754;2023-08-01T06:55:17;20.85;;;8.95;;
33714;SDS011;20043;50.998;4.754;2023-08-01T06:57:42;18.45;;;8.73;;
33714;SDS011;20043;50.998;4.754;2023-08-01T07:00:08;19.27;;;8.75;;
33714;SDS011;20043;50.998;4.754;2023-08-01T07:02:34;19.27;;;9.35;;
33714;SDS011;20043;50.998;4.754;2023-08-01T07:05:00;21.45;;;8.90;;
33714;SDS011;20043;50.998;4.754;2023-08-01T07:07:25;23.83;;;9.07;;
33714;SDS011;20043;50.998;4.754;2023-08-01T07:09:51;18.90;;;8.95;;
33714;SDS011;20043;50.998;4.754;2023-08-01T07:12:16;17.73;;;8.70;;
33714;SDS011;20043;50.998;4.754;2023-08-01T07:14:42;19.30;;;9.35;;
33714;SDS011;20043;50.998;4.754;2023-08-01T07:17:08;21.23;;;9.32;;
33714;SDS011;20043;50.998;4.754;2023-08-01T07:19:34;17.60;;;8.23;;
33714;SDS011;20043;50.998;4.754;2023-08-01T07:21:59;17.02;;;8.52;;
33714;SDS011;20043;50.998;4.754;2023-08-01T07:24:25;22.35;;;8.40;;
33714;SDS011;20043;50.998;4.754;2023-08-01T07:26:51;17.95;;;8.30;;
33714;SDS011;20043;50.998;4.754;2023-08-01T07:29:16;15.65;;;7.13;;
33714;SDS011;20043;50.998;4.754;2023-08-01T07:31:42;19.40;;;8.60;;
33714;SDS011;20043;50.998;4.754;2023-08-01T07:34:08;19.77;;;7.80;;
33714;SDS011;20043;50.998;4.754;2023-08-01T07:36:33;23.77;;;8.32;;
33714;SDS011;20043;50.998;4.754;2023-08-01T07:38:59;17.27;;;7.28;;
33714;SDS011;20043;50.998;4.754;2023-08-01T07:41:25;16.85;;;7.13;;
33714;SDS011;20043;50.998;4.754;2023-08-01T07:43:50;16.63;;;7.20;;
33714;SDS011;20043;50.998;4.754;2023-08-01T07:46:16;15.82;;;7.40;;
33714;SDS011;20043;50.998;4.754;2023-08-01T07:48:42;15.60;;;5.95;;
33714;SDS011;20043;50.998;4.754;2023-08-01T07:51:07;16.20;;;6.35;;
33714;SDS011;20043;50.998;4.754;2023-08-01T07:53:33;17.27;;;6.32;;
33714;SDS011;20043;50.998;4.754;2023-08-01T07:55:59;17.38;;;6.20;;
33714;SDS011;20043;50.998;4.754;2023-08-01T07:58:27;14.15;;;5.88;;
33714;SDS011;20043;50.998;4.754;2023-08-01T08:00:53;16.92;;;5.97;;
33714;SDS011;20043;50.998;4.754;2023-08-01T08:03:19;12.15;;;5.72;;
33714;SDS011;20043;50.998;4.754;2023-08-01T08:05:47;15.80;;;5.70;;
33714;SDS011;20043;50.998;4.754;2023-08-01T08:08:13;26.27;;;5.93;;
33714;SDS011;20043;50.998;4.754;2023-08-01T08:10:39;19.80;;;5.80;;
33714;SDS011;20043;50.998;4.754;2023-08-01T08:13:04;15.05;;;6.15;;
33714;SDS011;20043;50.998;4.754;2023-08-01T08:15:30;49.75;;;6.53;;
33714;SDS011;20043;50.998;4.754;2023-08-01T08:17:59;15.25;;;5.22;;
33714;SDS011;20043;50.998;4.754;2023-08-01T08:20:29;13.00;;;5.20;;
33714;SDS011;20043;50.998;4.754;2023-08-01T08:22:56;15.05;;;5.30;;
33714;SDS011;20043;50.998;4.754;2023-08-01T08:25:21;13.23;;;4.68;;
33714;SDS011;20043;50.998;4.754;2023-08-01T08:27:48;15.07;;;5.38;;
33714;SDS011;20043;50.998;4.754;2023-08-01T08:30:14;13.60;;;4.90;;
33714;SDS011;20043;50.998;4.754;2023-08-01T08:32:40;16.05;;;4.97;;
33714;SDS011;20043;50.998;4.754;2023-08-01T08:35:05;13.30;;;4.90;;
33714;SDS011;20043;50.998;4.754;2023-08-01T08:37:31;14.55;;;4.90;;
33714;SDS011;20043;50.998;4.754;2023-08-01T08:39:57;12.13;;;4.97;;
33714;SDS011;20043;50.998;4.754;2023-08-01T08:42:22;12.88;;;4.95;;
33714;SDS011;20043;50.998;4.754;2023-08-01T08:44:49;14.52;;;5.18;;
33714;SDS011;20043;50.998;4.754;2023-08-01T08:47:19;14.82;;;5.20;;
33714;SDS011;20043;50.998;4.754;2023-08-01T08:49:49;13.68;;;5.10;;
33714;SDS011;20043;50.998;4.754;2023-08-01T08:52:15;11.35;;;4.93;;
33714;SDS011;20043;50.998;4.754;2023-08-01T08:54:41;14.63;;;5.57;;
33714;SDS011;20043;50.998;4.754;2023-08-01T08:57:08;14.80;;;5.65;;
33714;SDS011;20043;50.998;4.754;2023-08-01T08:59:34;12.30;;;5.63;;
33714;SDS011;20043;50.998;4.754;2023-08-01T09:02:01;17.33;;;5.22;;
33714;SDS011;20043;50.998;4.754;2023-08-01T09:04:29;11.93;;;5.28;;
33714;SDS011;20043;50.998;4.754;2023-08-01T09:06:58;12.50;;;5.10;;
33714;SDS011;20043;50.998;4.754;2023-08-01T09:09:27;14.57;;;5.40;;
33714;SDS011;20043;50.998;4.754;2023-08-01T09:11:53;14.43;;;5.13;;
33714;SDS011;20043;50.998;4.754;2023-08-01T09:14:21;14.13;;;5.45;;
33714;SDS011;20043;50.998;4.754;2023-08-01T09:16:47;11.73;;;4.60;;
33714;SDS011;20043;50.998;4.754;2023-08-01T09:19:17;10.20;;;4.32;;
33714;SDS011;20043;50.998;4.754;2023-08-01T09:21:43;12.77;;;4.75;;
33714;SDS011;20043;50.998;4.754;2023-08-01T09:24:11;12.88;;;4.00;;
33714;SDS011;20043;50.998;4.754;2023-08-01T09:26:44;10.43;;;4.40;;
33714;SDS011;20043;50.998;4.754;2023-08-01T09:29:10;18.67;;;4.63;;
33714;SDS011;20043;50.998;4.754;2023-08-01T09:31:37;13.25;;;4.43;;
33714;SDS011;20043;50.998;4.754;2023-08-01T09:34:06;8.43;;;3.95;;
33714;SDS011;20043;50.998;4.754;2023-08-01T09:36:43;9.70;;;3.92;;
33714;SDS011;20043;50.998;4.754;2023-08-01T09:39:09;9.38;;;3.63;;
33714;SDS011;20043;50.998;4.754;2023-08-01T09:41:44;10.38;;;4.05;;
33714;SDS011;20043;50.998;4.754;2023-08-01T09:44:11;10.02;;;4.10;;
33714;SDS011;20043;50.998;4.754;2023-08-01T09:46:37;15.48;;;4.65;;
33714;SDS011;20043;50.998;4.754;2023-08-01T09:49:09;9.80;;;3.85;;
33714;SDS011;20043;50.998;4.754;2023-08-01T09:51:46;9.05;;;3.38;;
33714;SDS011;20043;50.998;4.754;2023-08-01T09:54:15;9.45;;;3.47;;
33714;SDS011;20043;50.998;4.754;2023-08-01T09:56:46;6.47;;;3.38;;
33714;SDS011;20043;50.998;4.754;2023-08-01T09:59:15;9.57;;;3.60;;
33714;SDS011;20043;50.998;4.754;2023-08-01T10:01:48;9.40;;;3.85;;
33714;SDS011;20043;50.998;4.754;2023-08-01T10:04:22;14.30;;;3.60;;
33714;SDS011;20043;50.998;4.754;2023-08-01T10:06:51;6.97;;;3.28;;
33714;SDS011;20043;50.998;4.754;2023-08-01T10:09:29;8.30;;;3.30;;
33714;SDS011;20043;50.998;4.754;2023-08-01T10:11:57;7.13;;;3.17;;
33714;SDS011;20043;50.998;4.754;2023-08-01T10:14:23;12.13;;;3.45;;
33714;SDS011;20043;50.998;4.754;2023-08-01T10:16:50;11.27;;;3.65;;
33714;SDS011;20043;50.998;4.754;2023-08-01T10:19:17;10.85;;;3.42;;
33714;SDS011;20043;50.998;4.754;2023-08-01T10:21:42;10.38;;;3.50;;
33714;SDS011;20043;50.998;4.754;2023-08-01T10:24:09;9.07;;;3.38;;
33714;SDS011;20043;50.998;4.754;2023-08-01T10:26:37;6.40;;;3.30;;
33714;SDS011;20043;50.998;4.754;2023-08-01T10:29:03;10.63;;;3.75;;
33714;SDS011;20043;50.998;4.754;2023-08-01T10:31:29;8.13;;;3.00;;
33714;SDS011;20043;50.998;4.754;2023-08-01T10:34:03;8.32;;;2.83;;
33714;SDS011;20043;50.998;4.754;2023-08-01T10:36:30;15.93;;;3.15;;
33714;SDS011;20043;50.998;4.754;2023-08-01T10:38:58;10.48;;;3.35;;
33714;SDS011;20043;50.998;4.754;2023-08-01T10:41:28;9.73;;;3.50;;
33714;SDS011;20043;50.998;4.754;2023-08-01T10:52:25;11.68;;;4.32;;
33714;SDS011;20043;50.998;4.754;2023-08-01T10:54:57;11.63;;;3.53;;
33714;SDS011;20043;50.998;4.754;2023-08-01T10:57:27;7.45;;;3.25;;
33714;SDS011;20043;50.998;4.754;2023-08-01T10:59:57;11.25;;;4.55;;
33714;SDS011;20043;50.998;4.754;2023-08-01T11:02:27;9.07;;;3.47;;
33714;SDS011;20043;50.998;4.754;2023-08-01T11:04:57;12.15;;;2.90;;
33714;SDS011;20043;50.998;4.754;2023-08-01T11:07:24;10.73;;;2.88;;
33714;SDS011;20043;50.998;4.754;2023-08-01T11:09:50;13.55;;;3.28;;
33714;SDS011;20043;50.998;4.754;2023-08-01T11:15:15;11.65;;;3.15;;
33714;SDS011;20043;50.998;4.754;2023-08-01T11:17:47;10.52;;;3.50;;
33714;SDS011;20043;50.998;4.754;2023-08-01T11:20:15;8.68;;;3.10;;
33714;SDS011;20043;50.998;4.754;2023-08-01T11:22:51;11.73;;;3.60;;
33714;SDS011;20043;50.998;4.754;2023-08-01T11:25:31;9.02;;;3.05;;
33714;SDS011;20043;50.998;4.754;2023-08-01T11:28:05;14.00;;;3.47;;
33714;SDS011;20043;50.998;4.754;2023-08-01T11:30:32;7.78;;;3.20;;
33714;SDS011;20043;50.998;4.754;2023-08-01T11:32:58;8.73;;;3.03;;
33714;SDS011;20043;50.998;4.754;2023-08-01T11:35:25;7.57;;;3.08;;
33714;SDS011;20043;50.998;4.754;2023-08-01T11:37:50;13.95;;;3.13;;
33714;SDS011;20043;50.998;4.754;2023-08-01T11:40:17;9.43;;;3.17;;
33714;SDS011;20043;50.998;4.754;2023-08-01T11:42:47;8.82;;;3.15;;
33714;SDS011;20043;50.998;4.754;2023-08-01T11:45:16;11.43;;;3.20;;
33714;SDS011;20043;50.998;4.754;2023-08-01T11:47:49;8.57;;;2.90;;
33714;SDS011;20043;50.998;4.754;2023-08-01T11:50:20;8.85;;;3.20;;
33714;SDS011;20043;50.998;4.754;2023-08-01T11:52:48;8.38;;;2.90;;
33714;SDS011;20043;50.998;4.754;2023-08-01T11:57:56;7.35;;;2.30;;
33714;SDS011;20043;50.998;4.754;2023-08-01T12:00:23;13.32;;;3.10;;
33714;SDS011;20043;50.998;4.754;2023-08-01T12:03:03;7.00;;;2.90;;
33714;SDS011;20043;50.998;4.754;2023-08-01T12:05:30;8.85;;;2.50;;
33714;SDS011;20043;50.998;4.754;2023-08-01T12:07:56;12.13;;;2.70;;
33714;SDS011;20043;50.998;4.754;2023-08-01T12:10:21;8.93;;;2.45;;
33714;SDS011;20043;50.998;4.754;2023-08-01T12:12:48;8.27;;;2.28;;
33714;SDS011;20043;50.998;4.754;2023-08-01T12:15:14;7.68;;;2.40;;
33714;SDS011;20043;50.998;4.754;2023-08-01T12:17:40;8.43;;;2.47;;
33714;SDS011;20043;50.998;4.754;2023-08-01T12:20:06;8.63;;;2.30;;
33714;SDS011;20043;50.998;4.754;2023-08-01T12:22:33;9.65;;;2.47;;
33714;SDS011;20043;50.998;4.754;2023-08-01T12:24:58;7.43;;;2.30;;
33714;SDS011;20043;50.998;4.754;2023-08-01T12:27:24;10.48;;;2.00;;
33714;SDS011;20043;50.998;4.754;2023-08-01T12:29:49;10.40;;;2.30;;
33714;SDS011;20043;50.998;4.754;2023-08-01T12:32:15;8.68;;;2.47;;
33714;SDS011;20043;50.998;4.754;2023-08-01T12:34:41;6.85;;;1.90;;
33714;SDS011;20043;50.998;4.754;2023-08-01T12:37:06;12.27;;;2.70;;
33714;SDS011;20043;50.998;4.754;2023-08-01T12:39:32;5.57;;;1.90;;
33714;SDS011;20043;50.998;4.754;2023-08-01T12:41:57;6.45;;;2.00;;
33714;SDS011;20043;50.998;4.754;2023-08-01T12:44:23;11.75;;;3.20;;
33714;SDS011;20043;50.998;4.754;2023-08-01T12:46:49;9.20;;;2.40;;
33714;SDS011;20043;50.998;4.754;2023-08-01T12:49:14;6.90;;;2.05;;
33714;SDS011;20043;50.998;4.754;2023-08-01T12:51:40;6.43;;;2.45;;
33714;SDS011;20043;50.998;4.754;2023-08-01T12:54:06;10.00;;;2.47;;
33714;SDS011;20043;50.998;4.754;2023-08-01T12:56:31;7.82;;;2.20;;
33714;SDS011;20043;50.998;4.754;2023-08-01T12:58:57;6.15;;;2.03;;
33714;SDS011;20043;50.998;4.754;2023-08-01T13:01:23;7.70;;;2.10;;
33714;SDS011;20043;50.998;4.754;2023-08-01T13:03:48;3.97;;;1.90;;
33714;SDS011;20043;50.998;4.754;2023-08-01T13:06:14;4.95;;;2.08;;
33714;SDS011;20043;50.998;4.754;2023-08-01T13:08:40;6.82;;;2.00;;
33714;SDS011;20043;50.998;4.754;2023-08-01T13:11:12;5.28;;;1.88;;
33714;SDS011;20043;50.998;4.754;2023-08-01T13:13:42;6.15;;;1.88;;
33714;SDS011;20043;50.998;4.754;2023-08-01T13:16:07;3.65;;;1.90;;
33714;SDS011;20043;50.998;4.754;2023-08-01T13:18:34;8.02;;;1.83;;
33714;SDS011;20043;50.998;4.754;2023-08-01T13:21:00;8.88;;;1.60;;
33714;SDS011;20043;50.998;4.754;2023-08-01T13:23:26;4.15;;;1.60;;
33714;SDS011;20043;50.998;4.754;2023-08-01T13:25:51;7.13;;;1.67;;
33714;SDS011;20043;50.998;4.754;2023-08-01T13:28:17;6.55;;;1.80;;
33714;SDS011;20043;50.998;4.754;2023-08-01T13:30:43;5.43;;;1.58;;
33714;SDS011;20043;50.998;4.754;2023-08-01T13:33:08;5.03;;;1.63;;
33714;SDS011;20043;50.998;4.754;2023-08-01T13:35:34;7.53;;;1.90;;
33714;SDS011;20043;50.998;4.754;2023-08-01T13:38:00;8.00;;;1.88;;
33714;SDS011;20043;50.998;4.754;2023-08-01T13:40:26;4.30;;;1.65;;
33714;SDS011;20043;50.998;4.754;2023-08-01T13:42:51;8.65;;;1.90;;
33714;SDS011;20043;50.998;4.754;2023-08-01T13:45:17;7.78;;;2.20;;
33714;SDS011;20043;50.998;4.754;2023-08-01T13:47:43;6.18;;;1.80;;
33714;SDS011;20043;50.998;4.754;2023-08-01T13:50:09;6.35;;;2.33;;
33714;SDS011;20043;50.998;4.754;2023-08-01T13:52:36;5.72;;;2.10;;
33714;SDS011;20043;50.998;4.754;2023-08-01T13:55:02;7.40;;;2.17;;
33714;SDS011;20043;50.998;4.754;2023-08-01T13:57:28;8.63;;;1.70;;
33714;SDS011;20043;50.998;4.754;2023-08-01T13:59:54;7.43;;;2.00;;
33714;SDS011;20043;50.998;4.754;2023-08-01T14:02:20;6.28;;;2.00;;
33714;SDS011;20043;50.998;4.754;2023-08-01T14:04:45;6.88;;;2.10;;
33714;SDS011;20043;50.998;4.754;2023-08-01T14:07:11;9.50;;;2.13;;
33714;SDS011;20043;50.998;4.754;2023-08-01T14:09:37;7.50;;;1.98;;
33714;SDS011;20043;50.998;4.754;2023-08-01T14:12:03;5.93;;;1.80;;
33714;SDS011;20043;50.998;4.754;2023-08-01T14:14:29;5.93;;;2.10;;
33714;SDS011;20043;50.998;4.754;2023-08-01T14:16:55;7.53;;;2.05;;
33714;SDS011;20043;50.998;4.754;2023-08-01T14:19:20;6.70;;;2.13;;
33714;SDS011;20043;50.998;4.754;2023-08-01T14:21:46;10.45;;;2.30;;
33714;SDS011;20043;50.998;4.754;2023-08-01T14:24:12;7.80;;;2.00;;
33714;SDS011;20043;50.998;4.754;2023-08-01T14:26:37;8.32;;;2.00;;
33714;SDS011;20043;50.998;4.754;2023-08-01T14:29:04;8.00;;;2.03;;
33714;SDS011;20043;50.998;4.754;2023-08-01T14:31:29;5.60;;;2.13;;
33714;SDS011;20043;50.998;4.754;2023-08-01T14:33:55;6.38;;;2.13;;
33714;SDS011;20043;50.998;4.754;2023-08-01T14:36:21;8.43;;;2.30;;
33714;SDS011;20043;50.998;4.754;2023-08-01T14:38:46;9.90;;;2.17;;
33714;SDS011;20043;50.998;4.754;2023-08-01T14:41:19;6.18;;;2.10;;
33714;SDS011;20043;50.998;4.754;2023-08-01T14:43:44;8.95;;;2.83;;
33714;SDS011;20043;50.998;4.754;2023-08-01T14:46:10;6.63;;;2.30;;